Celandine — ONDN — position and weather

sailwx.info

Track history (hours):
 
Tides and Currents Weather Stations Pressure Air Temp Water Temp Dewpoint Dewpoint Depression Visibility Wind Speed Wind Dir Waves Ship Positions

Celandine

Last reported at 2014-Sep-19 07:33 UTC. Time now 2014-Sep-19 07:55 UTC.
Position N 51°28' E 000°15'.

Length 162 m; draft 6.1 m.

Type: Ship (hazmat cat A). MMSI: 205476000.

Date/timePositionNaut miles runAvg speedWind from/ knotsBaromVisibWave heightAir tempDewpointWater temp
2014-Sep-19 07:33N 51°28' E 000°15'0 0.0
2014-Sep-19 06:33N 51°28' E 000°15'0 0.0
2014-Sep-19 05:33N 51°28' E 000°15'2 1.6
2014-Sep-19 04:34N 51°28' E 000°18'10 9.6
2014-Sep-19 03:34N 51°30' E 000°33'1616.0
2014-Sep-19 02:34N 51°29' E 000°58'1514.8
2014-Sep-19 01:33N 51°29' E 001°22'1616.1
2014-Sep-19 00:33N 51°34' E 001°47'1615.9
2014-Sep-18 23:33N 51°41' E 002°10'1515.4
2014-Sep-18 22:33N 51°35' E 002°33'1615.6
2014-Sep-18 21:32N 51°28' E 002°56'1313.0
2014-Sep-18 20:33N 51°21' E 003°13'0 0.0
2014-Sep-18 19:33N 51°21' E 003°13'0 0.0
2014-Sep-18 18:33N 51°21' E 003°13'0 0.0
2014-Sep-18 17:33N 51°21' E 003°13'0 0.0
2014-Sep-18 16:33N 51°21' E 003°13'0 0.0
2014-Sep-18 15:33N 51°21' E 003°13'0 0.0
2014-Sep-18 14:33N 51°21' E 003°13'0 0.1
2014-Sep-18 13:34N 51°21' E 003°13'1313.0
2014-Sep-18 12:33N 51°28' E 002°55'1616.0
2014-Sep-18 11:33N 51°34' E 002°32'1616.2
2014-Sep-18 10:33N 51°37' E 002°07'1716.6
2014-Sep-18 09:33N 51°32' E 001°41'1616.4
2014-Sep-18 08:33N 51°29' E 001°15'1616.2
2014-Sep-18 07:33N 51°29' E 000°49'1414.0
2014-Sep-18 06:34N 51°28' E 000°27'8 7.6
2014-Sep-18 05:34N 51°28' E 000°15'0 0.1
2014-Sep-18 04:31N 51°28' E 000°15'0 0.0
2014-Sep-18 03:31N 51°28' E 000°15'0 0.0
2014-Sep-18 02:31N 51°28' E 000°15'0 0.0
2014-Sep-18 01:31N 51°28' E 000°15'0 0.0
2014-Sep-18 00:31N 51°28' E 000°15'0 0.0
2014-Sep-17 23:31N 51°28' E 000°15'1 1.0
2014-Sep-17 22:33N 51°28' E 000°16'8 7.8
2014-Sep-17 21:33N 51°30' E 000°28'1414.1
2014-Sep-17 20:33N 51°29' E 000°51'1515.5
2014-Sep-17 19:33N 51°29' E 001°16'1414.0
2014-Sep-17 18:33N 51°31' E 001°38'1615.8
2014-Sep-17 17:33N 51°38' E 002°01'1515.3
2014-Sep-17 16:33N 51°35' E 002°25'1515.5
2014-Sep-17 15:33N 51°31' E 002°49'1616.2
2014-Sep-17 14:33N 51°22' E 003°11'2 1.9
2014-Sep-17 13:31N 51°21' E 003°13'0 0.0
2014-Sep-17 12:16N 51°21' E 003°13'0 0.0
2014-Sep-17 11:31N 51°21' E 003°13'0 0.0
2014-Sep-17 10:25N 51°21' E 003°13'0 0.0
2014-Sep-17 09:31N 51°21' E 003°13'0 0.0
2014-Sep-17 08:25N 51°21' E 003°13'4 5.1
2014-Sep-17 07:33N 51°23' E 003°08'1212.3
2014-Sep-17 06:33N 51°30' E 002°51'1615.7
2014-Sep-17 05:33N 51°33' E 002°26'1615.5
2014-Sep-17 04:33N 51°35' E 002°01'1515.3
2014-Sep-17 03:34N 51°31' E 001°37'1514.7
2014-Sep-17 02:33N 51°29' E 001°14'1414.4
2014-Sep-17 01:33N 51°29' E 000°51'1414.3
2014-Sep-17 00:34N 51°29' E 000°28'8 8.1
2014-Sep-16 23:33N 51°28' E 000°15'0 0.0
2014-Sep-16 22:28N 51°28' E 000°15'0 0.0
2014-Sep-16 21:31N 51°28' E 000°15'0 0.0
2014-Sep-16 20:31N 51°28' E 000°15'0 0.0
2014-Sep-16 19:31N 51°28' E 000°15'0 0.0
2014-Sep-16 18:31N 51°28' E 000°15'0 0.0
2014-Sep-16 17:31N 51°28' E 000°15'1 1.5
2014-Sep-16 16:34N 51°28' E 000°17'9 8.8
2014-Sep-16 15:33N 51°30' E 000°31'1717.4
2014-Sep-16 14:33N 51°29' E 000°59'1717.4
2014-Sep-16 13:33N 51°29' E 001°27'1414.0
2014-Sep-16 12:34N 51°34' E 001°48'1414.4
2014-Sep-16 11:34N 51°40' E 002°09'1514.9
2014-Sep-16 10:33N 51°35' E 002°32'1616.0
2014-Sep-16 09:33N 51°28' E 002°55'1313.3
2014-Sep-16 08:33N 51°21' E 003°13'0 0.0
2014-Sep-16 07:31N 51°21' E 003°13'0 0.0
2014-Sep-16 06:33N 51°21' E 003°13'0 0.0
2014-Sep-16 05:33N 51°21' E 003°13'0 0.0
2014-Sep-16 04:33N 51°21' E 003°13'0 0.0
2014-Sep-16 03:33N 51°21' E 003°13'0 0.0
2014-Sep-16 02:33N 51°21' E 003°13'0 0.0
2014-Sep-16 01:31N 51°21' E 003°13'0 0.0
2014-Sep-16 00:32N 51°21' E 003°13'1211.7
2014-Sep-15 23:32N 51°27' E 002°57'1515.3
2014-Sep-15 22:33N 51°34' E 002°36'1515.5
2014-Sep-15 21:33N 51°39' E 002°12'1615.7
2014-Sep-15 20:33N 51°34' E 001°48'1716.7
2014-Sep-15 19:33N 51°29' E 001°23'1817.7
2014-Sep-15 18:33N 51°29' E 000°54'1616.0
2014-Sep-15 17:34N 51°30' E 000°29'8 8.4
2014-Sep-15 16:33N 51°28' E 000°16'0 0.4
2014-Sep-15 15:31N 51°28' E 000°15'0 0.0
2014-Sep-15 14:31N 51°28' E 000°15'0 0.0
2014-Sep-15 13:31N 51°28' E 000°15'0 0.0
2014-Sep-15 12:31N 51°28' E 000°15'0 0.0
2014-Sep-15 11:33N 51°28' E 000°15'0 0.0
2014-Sep-15 10:33N 51°28' E 000°15'0 0.0
2014-Sep-15 09:33N 51°28' E 000°15'0 0.0
2014-Sep-15 08:33N 51°28' E 000°15'0 0.0
2014-Sep-15 07:33N 51°28' E 000°15'0 0.0
2014-Sep-15 06:33N 51°28' E 000°15'0 0.0
2014-Sep-15 05:33N 51°28' E 000°15'3 2.8
2014-Sep-15 04:33N 51°28' E 000°20'9 9.5
2014-Sep-15 03:34N 51°30' E 000°34'1514.6
2014-Sep-15 02:34N 51°29' E 000°58'1716.7
2014-Sep-15 01:33N 51°29' E 001°25'1616.1
2014-Sep-15 00:33N 51°34' E 001°49'1413.6
2014-Sep-14 23:33N 51°41' E 002°09'2 1.9
2014-Sep-14 22:33N 51°41' E 002°05'1514.7
2014-Sep-14 21:33N 51°35' E 002°27'1212.0
2014-Sep-14 20:31N 51°30' E 002°45'1211.9
2014-Sep-14 19:30N 51°25' E 003°03'7 7.2
2014-Sep-14 18:28N 51°21' E 003°13'0 0.0
2014-Sep-14 17:31N 51°21' E 003°13'0 0.0
2014-Sep-14 16:25N 51°21' E 003°13'0 0.0
2014-Sep-14 15:31N 51°21' E 003°13'0 0.0
2014-Sep-14 14:28N 51°21' E 003°13'0 0.0
2014-Sep-14 13:31N 51°21' E 003°13'0 0.0
2014-Sep-14 12:31N 51°21' E 003°13'0 0.0
2014-Sep-14 11:31N 51°21' E 003°13'0 0.0
2014-Sep-14 10:31N 51°21' E 003°13'0 0.0
2014-Sep-14 09:31N 51°21' E 003°13'0 0.0
2014-Sep-14 08:31N 51°21' E 003°13'0 0.0
2014-Sep-14 07:31N 51°21' E 003°13'0 0.0
2014-Sep-14 06:31N 51°21' E 003°13'0 0.0
2014-Sep-14 05:28N 51°21' E 003°13'0 0.0
2014-Sep-14 04:31N 51°21' E 003°13'0 0.0
2014-Sep-14 03:31N 51°21' E 003°13'0 0.0
2014-Sep-14 02:31N 51°21' E 003°13'0 0.0
2014-Sep-14 01:31N 51°21' E 003°13'23 5.8
2014-Sep-13 21:33N 51°33' E 002°42'1514.6
2014-Sep-13 20:32N 51°38' E 002°20'1414.7
2014-Sep-13 19:33N 51°36' E 001°56'1717.2
2014-Sep-13 18:34N 51°29' E 001°31'1717.4
2014-Sep-13 17:34N 51°29' E 001°03'1717.4
2014-Sep-13 16:34N 51°30' E 000°35'1010.2
2014-Sep-13 15:34N 51°28' E 000°19'3 2.5
2014-Sep-13 14:31N 51°28' E 000°15'0 0.0
2014-Sep-13 13:31N 51°28' E 000°15'0 0.0
2014-Sep-13 12:31N 51°28' E 000°15'0 0.0
2014-Sep-13 11:31N 51°28' E 000°15'0 0.0
2014-Sep-13 10:31N 51°28' E 000°15'0 0.0
2014-Sep-13 09:31N 51°28' E 000°15'0 0.0
2014-Sep-13 08:31N 51°28' E 000°15'1 1.5
2014-Sep-13 07:33N 51°28' E 000°17'9 9.4
2014-Sep-13 06:33N 51°30' E 000°32'1313.3
2014-Sep-13 05:33N 51°29' E 000°53'1414.0
2014-Sep-13 04:34N 51°29' E 001°16'1716.8
2014-Sep-13 03:34N 51°33' E 001°42'7 6.7
2014-Sep-13 02:34N 51°35' E 001°52'1111.1
2014-Sep-13 01:33N 51°40' E 002°08'1313.2
2014-Sep-13 00:33N 51°35' E 002°28'1313.4
2014-Sep-12 23:33N 51°31' E 002°49'1515.1
2014-Sep-12 22:33N 51°23' E 003°10'3 3.2
2014-Sep-12 21:33N 51°21' E 003°13'0 0.0
2014-Sep-12 20:32N 51°21' E 003°13'0 0.0
2014-Sep-12 19:32N 51°21' E 003°13'0 0.0
2014-Sep-12 18:32N 51°21' E 003°13'0 0.0
2014-Sep-12 17:32N 51°21' E 003°13'0 0.0
2014-Sep-12 16:32N 51°21' E 003°13'0 0.0
2014-Sep-12 15:32N 51°21' E 003°13'0 0.0
2014-Sep-12 14:32N 51°21' E 003°13'0 0.0
2014-Sep-12 13:26N 51°21' E 003°13'0 0.0
2014-Sep-12 12:15N 51°21' E 003°13'911.7
2014-Sep-12 11:31N 51°25' E 003°01'1616.4
2014-Sep-12 10:32N 51°34' E 002°41'1515.0
2014-Sep-12 09:33N 51°36' E 002°17'1414.1
2014-Sep-12 08:34N 51°35' E 001°54'1616.0
2014-Sep-12 07:33N 51°29' E 001°31'1817.7
2014-Sep-12 06:33N 51°30' E 001°02'1919.3
2014-Sep-12 05:34N 51°30' E 000°31'1010.4
2014-Sep-12 04:34N 51°28' E 000°15'0 0.0
2014-Sep-12 03:31N 51°28' E 000°15'0 0.0
2014-Sep-12 02:31N 51°28' E 000°15'0 0.0
2014-Sep-12 01:31N 51°28' E 000°15'0 0.0
2014-Sep-12 00:31N 51°28' E 000°15'0 0.0
2014-Sep-11 23:31N 51°28' E 000°15'0 0.1
2014-Sep-11 22:33N 51°28' E 000°15'8 7.7
2014-Sep-11 21:33N 51°29' E 000°27'1514.6
2014-Sep-11 20:34N 51°29' E 000°51'1414.2
2014-Sep-11 19:33N 51°29' E 001°13'1514.7
2014-Sep-11 18:33N 51°30' E 001°37'1615.6
2014-Sep-11 17:33N 51°32' E 002°02'2217.9
2014-Sep-11 16:22N 51°29' E 002°36'1012.0
2014-Sep-11 15:30N 51°27' E 002°52'1313.3
2014-Sep-11 14:33N 51°22' E 003°11'2 1.7
2014-Sep-11 13:17N 51°21' E 003°13'0 0.0
2014-Sep-11 11:24N 51°21' E 003°13'0 0.0
2014-Sep-11 08:32N 51°21' E 003°13'0 0.0
2014-Sep-11 07:32N 51°21' E 003°13'1010.6
2014-Sep-11 06:33N 51°26' E 002°59'1615.8
2014-Sep-11 05:33N 51°35' E 002°37'1414.5
2014-Sep-11 04:33N 51°42' E 002°18'1717.0
2014-Sep-11 03:34N 51°35' E 001°53'1817.6
2014-Sep-11 02:34N 51°29' E 001°26'1716.7
2014-Sep-11 01:33N 51°29' E 000°60'1515.3
2014-Sep-11 00:33N 51°30' E 000°35'1110.6
2014-Sep-10 23:34N 51°28' E 000°18'2 2.0
2014-Sep-10 22:33N 51°28' E 000°15'0 0.0
2014-Sep-10 21:33N 51°28' E 000°15'0 0.0
2014-Sep-10 20:33N 51°28' E 000°15'0 0.0
2014-Sep-10 19:33N 51°28' E 000°15'0 0.0
2014-Sep-10 18:33N 51°28' E 000°15'0 0.0
2014-Sep-10 17:33N 51°28' E 000°15'1 1.5
2014-Sep-10 16:34N 51°28' E 000°17'6 5.9
2014-Sep-10 15:33N 51°28' E 000°27'1111.0
2014-Sep-10 14:33N 51°30' E 000°44'1514.7
2014-Sep-10 13:34N 51°29' E 001°08'1616.1
2014-Sep-10 12:33N 51°30' E 001°34'1616.2
2014-Sep-10 11:34N 51°33' E 001°59'1615.7
2014-Sep-10 10:33N 51°28' E 002°23'1716.8
2014-Sep-10 09:33N 51°27' E 002°50'1515.2
2014-Sep-10 08:33N 51°21' E 003°12'1 0.8
2014-Sep-10 07:33N 51°21' E 003°13'0 0.0
2014-Sep-10 06:30N 51°21' E 003°13'0 0.0
2014-Sep-10 05:33N 51°21' E 003°13'0 0.0
2014-Sep-10 04:33N 51°21' E 003°13'0 0.0
2014-Sep-10 03:18N 51°21' E 003°13'0 0.0
2014-Sep-10 02:09N 51°21' E 003°13'0 0.0
2014-Sep-10 01:30N 51°21' E 003°13'0 0.0
2014-Sep-10 00:15N 51°21' E 003°13'1011.9
2014-Sep-09 23:24N 51°26' E 002°59'1416.4
2014-Sep-09 22:31N 51°34' E 002°40'1515.3
2014-Sep-09 21:33N 51°38' E 002°17'1413.8
2014-Sep-09 20:33N 51°36' E 001°55'1514.9
2014-Sep-09 19:33N 51°30' E 001°33'1616.1
2014-Sep-09 18:33N 51°29' E 001°08'1717.5
2014-Sep-09 17:34N 51°30' E 000°40'1312.6
2014-Sep-09 16:33N 51°27' E 000°20'3 3.1
2014-Sep-09 15:34N 51°28' E 000°15'0 0.0
2014-Sep-09 14:33N 51°28' E 000°15'0 0.0
2014-Sep-09 13:33N 51°28' E 000°15'0 0.0
2014-Sep-09 12:33N 51°28' E 000°15'0 0.0
2014-Sep-09 11:33N 51°28' E 000°15'0 0.0
2014-Sep-09 10:33N 51°28' E 000°15'0 0.0
2014-Sep-09 09:33N 51°28' E 000°15'0 0.0
2014-Sep-09 08:33N 51°28' E 000°15'  
Track history (hours):
 
Tides and Currents Weather Stations Pressure Air Temp Water Temp Dewpoint Dewpoint Depression Visibility Wind Speed Wind Dir Waves Ship Positions

Celandine

Last reported at 2014-Sep-19 07:33 UTC. Time now 2014-Sep-19 07:55 UTC.
Position N 51°28' E 000°15'.

Length 162 m; draft 6.1 m.

Type: Ship (hazmat cat A). MMSI: 205476000.

Date/timePositionNaut miles runAvg speedWind from/ knotsBaromVisibWave heightAir tempDewpointWater temp
2014-Sep-19 07:33N 51°28' E 000°15'0 0.0
2014-Sep-19 06:33N 51°28' E 000°15'0 0.0
2014-Sep-19 05:33N 51°28' E 000°15'2 1.6
2014-Sep-19 04:34N 51°28' E 000°18'10 9.6
2014-Sep-19 03:34N 51°30' E 000°33'1616.0
2014-Sep-19 02:34N 51°29' E 000°58'1514.8
2014-Sep-19 01:33N 51°29' E 001°22'1616.1
2014-Sep-19 00:33N 51°34' E 001°47'1615.9
2014-Sep-18 23:33N 51°41' E 002°10'1515.4
2014-Sep-18 22:33N 51°35' E 002°33'1615.6
2014-Sep-18 21:32N 51°28' E 002°56'1313.0
2014-Sep-18 20:33N 51°21' E 003°13'0 0.0
2014-Sep-18 19:33N 51°21' E 003°13'0 0.0
2014-Sep-18 18:33N 51°21' E 003°13'0 0.0
2014-Sep-18 17:33N 51°21' E 003°13'0 0.0
2014-Sep-18 16:33N 51°21' E 003°13'0 0.0
2014-Sep-18 15:33N 51°21' E 003°13'0 0.0
2014-Sep-18 14:33N 51°21' E 003°13'0 0.1
2014-Sep-18 13:34N 51°21' E 003°13'1313.0
2014-Sep-18 12:33N 51°28' E 002°55'1616.0
2014-Sep-18 11:33N 51°34' E 002°32'1616.2
2014-Sep-18 10:33N 51°37' E 002°07'1716.6
2014-Sep-18 09:33N 51°32' E 001°41'1616.4
2014-Sep-18 08:33N 51°29' E 001°15'1616.2
2014-Sep-18 07:33N 51°29' E 000°49'1414.0
2014-Sep-18 06:34N 51°28' E 000°27'8 7.6
2014-Sep-18 05:34N 51°28' E 000°15'0 0.1
2014-Sep-18 04:31N 51°28' E 000°15'0 0.0
2014-Sep-18 03:31N 51°28' E 000°15'0 0.0
2014-Sep-18 02:31N 51°28' E 000°15'0 0.0
2014-Sep-18 01:31N 51°28' E 000°15'0 0.0
2014-Sep-18 00:31N 51°28' E 000°15'0 0.0
2014-Sep-17 23:31N 51°28' E 000°15'1 1.0
2014-Sep-17 22:33N 51°28' E 000°16'8 7.8
2014-Sep-17 21:33N 51°30' E 000°28'1414.1
2014-Sep-17 20:33N 51°29' E 000°51'1515.5
2014-Sep-17 19:33N 51°29' E 001°16'1414.0
2014-Sep-17 18:33N 51°31' E 001°38'1615.8
2014-Sep-17 17:33N 51°38' E 002°01'1515.3
2014-Sep-17 16:33N 51°35' E 002°25'1515.5
2014-Sep-17 15:33N 51°31' E 002°49'1616.2
2014-Sep-17 14:33N 51°22' E 003°11'2 1.9
2014-Sep-17 13:31N 51°21' E 003°13'0 0.0
2014-Sep-17 12:16N 51°21' E 003°13'0 0.0
2014-Sep-17 11:31N 51°21' E 003°13'0 0.0
2014-Sep-17 10:25N 51°21' E 003°13'0 0.0
2014-Sep-17 09:31N 51°21' E 003°13'0 0.0
2014-Sep-17 08:25N 51°21' E 003°13'4 5.1
2014-Sep-17 07:33N 51°23' E 003°08'1212.3
2014-Sep-17 06:33N 51°30' E 002°51'1615.7
2014-Sep-17 05:33N 51°33' E 002°26'1615.5
2014-Sep-17 04:33N 51°35' E 002°01'1515.3
2014-Sep-17 03:34N 51°31' E 001°37'1514.7
2014-Sep-17 02:33N 51°29' E 001°14'1414.4
2014-Sep-17 01:33N 51°29' E 000°51'1414.3
2014-Sep-17 00:34N 51°29' E 000°28'8 8.1
2014-Sep-16 23:33N 51°28' E 000°15'0 0.0
2014-Sep-16 22:28N 51°28' E 000°15'0 0.0
2014-Sep-16 21:31N 51°28' E 000°15'0 0.0
2014-Sep-16 20:31N 51°28' E 000°15'0 0.0
2014-Sep-16 19:31N 51°28' E 000°15'0 0.0
2014-Sep-16 18:31N 51°28' E 000°15'0 0.0
2014-Sep-16 17:31N 51°28' E 000°15'1 1.5
2014-Sep-16 16:34N 51°28' E 000°17'9 8.8
2014-Sep-16 15:33N 51°30' E 000°31'1717.4
2014-Sep-16 14:33N 51°29' E 000°59'1717.4
2014-Sep-16 13:33N 51°29' E 001°27'1414.0
2014-Sep-16 12:34N 51°34' E 001°48'1414.4
2014-Sep-16 11:34N 51°40' E 002°09'1514.9
2014-Sep-16 10:33N 51°35' E 002°32'1616.0
2014-Sep-16 09:33N 51°28' E 002°55'1313.3
2014-Sep-16 08:33N 51°21' E 003°13'0 0.0
2014-Sep-16 07:31N 51°21' E 003°13'0 0.0
2014-Sep-16 06:33N 51°21' E 003°13'0 0.0
2014-Sep-16 05:33N 51°21' E 003°13'0 0.0
2014-Sep-16 04:33N 51°21' E 003°13'0 0.0
2014-Sep-16 03:33N 51°21' E 003°13'0 0.0
2014-Sep-16 02:33N 51°21' E 003°13'0 0.0
2014-Sep-16 01:31N 51°21' E 003°13'0 0.0
2014-Sep-16 00:32N 51°21' E 003°13'1211.7
2014-Sep-15 23:32N 51°27' E 002°57'1515.3
2014-Sep-15 22:33N 51°34' E 002°36'1515.5
2014-Sep-15 21:33N 51°39' E 002°12'1615.7
2014-Sep-15 20:33N 51°34' E 001°48'1716.7
2014-Sep-15 19:33N 51°29' E 001°23'1817.7
2014-Sep-15 18:33N 51°29' E 000°54'1616.0
2014-Sep-15 17:34N 51°30' E 000°29'8 8.4
2014-Sep-15 16:33N 51°28' E 000°16'0 0.4
2014-Sep-15 15:31N 51°28' E 000°15'0 0.0
2014-Sep-15 14:31N 51°28' E 000°15'0 0.0
2014-Sep-15 13:31N 51°28' E 000°15'0 0.0
2014-Sep-15 12:31N 51°28' E 000°15'0 0.0
2014-Sep-15 11:33N 51°28' E 000°15'0 0.0
2014-Sep-15 10:33N 51°28' E 000°15'0 0.0
2014-Sep-15 09:33N 51°28' E 000°15'0 0.0
2014-Sep-15 08:33N 51°28' E 000°15'0 0.0
2014-Sep-15 07:33N 51°28' E 000°15'0 0.0
2014-Sep-15 06:33N 51°28' E 000°15'0 0.0
2014-Sep-15 05:33N 51°28' E 000°15'3 2.8
2014-Sep-15 04:33N 51°28' E 000°20'9 9.5
2014-Sep-15 03:34N 51°30' E 000°34'1514.6
2014-Sep-15 02:34N 51°29' E 000°58'1716.7
2014-Sep-15 01:33N 51°29' E 001°25'1616.1
2014-Sep-15 00:33N 51°34' E 001°49'1413.6
2014-Sep-14 23:33N 51°41' E 002°09'2 1.9
2014-Sep-14 22:33N 51°41' E 002°05'1514.7
2014-Sep-14 21:33N 51°35' E 002°27'1212.0
2014-Sep-14 20:31N 51°30' E 002°45'1211.9
2014-Sep-14 19:30N 51°25' E 003°03'7 7.2
2014-Sep-14 18:28N 51°21' E 003°13'0 0.0
2014-Sep-14 17:31N 51°21' E 003°13'0 0.0
2014-Sep-14 16:25N 51°21' E 003°13'0 0.0
2014-Sep-14 15:31N 51°21' E 003°13'0 0.0
2014-Sep-14 14:28N 51°21' E 003°13'0 0.0
2014-Sep-14 13:31N 51°21' E 003°13'0 0.0
2014-Sep-14 12:31N 51°21' E 003°13'0 0.0
2014-Sep-14 11:31N 51°21' E 003°13'0 0.0
2014-Sep-14 10:31N 51°21' E 003°13'0 0.0
2014-Sep-14 09:31N 51°21' E 003°13'0 0.0
2014-Sep-14 08:31N 51°21' E 003°13'0 0.0
2014-Sep-14 07:31N 51°21' E 003°13'0 0.0
2014-Sep-14 06:31N 51°21' E 003°13'0 0.0
2014-Sep-14 05:28N 51°21' E 003°13'0 0.0
2014-Sep-14 04:31N 51°21' E 003°13'0 0.0
2014-Sep-14 03:31N 51°21' E 003°13'0 0.0
2014-Sep-14 02:31N 51°21' E 003°13'0 0.0
2014-Sep-14 01:31N 51°21' E 003°13'23 5.8
2014-Sep-13 21:33N 51°33' E 002°42'1514.6
2014-Sep-13 20:32N 51°38' E 002°20'1414.7
2014-Sep-13 19:33N 51°36' E 001°56'1717.2
2014-Sep-13 18:34N 51°29' E 001°31'1717.4
2014-Sep-13 17:34N 51°29' E 001°03'1717.4
2014-Sep-13 16:34N 51°30' E 000°35'1010.2
2014-Sep-13 15:34N 51°28' E 000°19'3 2.5
2014-Sep-13 14:31N 51°28' E 000°15'0 0.0
2014-Sep-13 13:31N 51°28' E 000°15'0 0.0
2014-Sep-13 12:31N 51°28' E 000°15'0 0.0
2014-Sep-13 11:31N 51°28' E 000°15'0 0.0
2014-Sep-13 10:31N 51°28' E 000°15'0 0.0
2014-Sep-13 09:31N 51°28' E 000°15'0 0.0
2014-Sep-13 08:31N 51°28' E 000°15'1 1.5
2014-Sep-13 07:33N 51°28' E 000°17'9 9.4
2014-Sep-13 06:33N 51°30' E 000°32'1313.3
2014-Sep-13 05:33N 51°29' E 000°53'1414.0
2014-Sep-13 04:34N 51°29' E 001°16'1716.8
2014-Sep-13 03:34N 51°33' E 001°42'7 6.7
2014-Sep-13 02:34N 51°35' E 001°52'1111.1
2014-Sep-13 01:33N 51°40' E 002°08'1313.2
2014-Sep-13 00:33N 51°35' E 002°28'1313.4
2014-Sep-12 23:33N 51°31' E 002°49'1515.1
2014-Sep-12 22:33N 51°23' E 003°10'3 3.2
2014-Sep-12 21:33N 51°21' E 003°13'0 0.0
2014-Sep-12 20:32N 51°21' E 003°13'0 0.0
2014-Sep-12 19:32N 51°21' E 003°13'0 0.0
2014-Sep-12 18:32N 51°21' E 003°13'0 0.0
2014-Sep-12 17:32N 51°21' E 003°13'0 0.0
2014-Sep-12 16:32N 51°21' E 003°13'0 0.0
2014-Sep-12 15:32N 51°21' E 003°13'0 0.0
2014-Sep-12 14:32N 51°21' E 003°13'0 0.0
2014-Sep-12 13:26N 51°21' E 003°13'0 0.0
2014-Sep-12 12:15N 51°21' E 003°13'911.7
2014-Sep-12 11:31N 51°25' E 003°01'1616.4
2014-Sep-12 10:32N 51°34' E 002°41'1515.0
2014-Sep-12 09:33N 51°36' E 002°17'1414.1
2014-Sep-12 08:34N 51°35' E 001°54'1616.0
2014-Sep-12 07:33N 51°29' E 001°31'1817.7
2014-Sep-12 06:33N 51°30' E 001°02'1919.3
2014-Sep-12 05:34N 51°30' E 000°31'1010.4
2014-Sep-12 04:34N 51°28' E 000°15'0 0.0
2014-Sep-12 03:31N 51°28' E 000°15'0 0.0
2014-Sep-12 02:31N 51°28' E 000°15'0 0.0
2014-Sep-12 01:31N 51°28' E 000°15'0 0.0
2014-Sep-12 00:31N 51°28' E 000°15'0 0.0
2014-Sep-11 23:31N 51°28' E 000°15'0 0.1
2014-Sep-11 22:33N 51°28' E 000°15'8 7.7
2014-Sep-11 21:33N 51°29' E 000°27'1514.6
2014-Sep-11 20:34N 51°29' E 000°51'1414.2
2014-Sep-11 19:33N 51°29' E 001°13'1514.7
2014-Sep-11 18:33N 51°30' E 001°37'1615.6
2014-Sep-11 17:33N 51°32' E 002°02'2217.9
2014-Sep-11 16:22N 51°29' E 002°36'1012.0
2014-Sep-11 15:30N 51°27' E 002°52'1313.3
2014-Sep-11 14:33N 51°22' E 003°11'2 1.7
2014-Sep-11 13:17N 51°21' E 003°13'0 0.0
2014-Sep-11 11:24N 51°21' E 003°13'0 0.0
2014-Sep-11 08:32N 51°21' E 003°13'0 0.0
2014-Sep-11 07:32N 51°21' E 003°13'1010.6
2014-Sep-11 06:33N 51°26' E 002°59'1615.8
2014-Sep-11 05:33N 51°35' E 002°37'1414.5
2014-Sep-11 04:33N 51°42' E 002°18'1717.0
2014-Sep-11 03:34N 51°35' E 001°53'1817.6
2014-Sep-11 02:34N 51°29' E 001°26'1716.7
2014-Sep-11 01:33N 51°29' E 000°60'1515.3
2014-Sep-11 00:33N 51°30' E 000°35'1110.6
2014-Sep-10 23:34N 51°28' E 000°18'2 2.0
2014-Sep-10 22:33N 51°28' E 000°15'0 0.0
2014-Sep-10 21:33N 51°28' E 000°15'0 0.0
2014-Sep-10 20:33N 51°28' E 000°15'0 0.0
2014-Sep-10 19:33N 51°28' E 000°15'0 0.0
2014-Sep-10 18:33N 51°28' E 000°15'0 0.0
2014-Sep-10 17:33N 51°28' E 000°15'1 1.5
2014-Sep-10 16:34N 51°28' E 000°17'6 5.9
2014-Sep-10 15:33N 51°28' E 000°27'1111.0
2014-Sep-10 14:33N 51°30' E 000°44'1514.7
2014-Sep-10 13:34N 51°29' E 001°08'1616.1
2014-Sep-10 12:33N 51°30' E 001°34'1616.2
2014-Sep-10 11:34N 51°33' E 001°59'1615.7
2014-Sep-10 10:33N 51°28' E 002°23'1716.8
2014-Sep-10 09:33N 51°27' E 002°50'1515.2
2014-Sep-10 08:33N 51°21' E 003°12'1 0.8
2014-Sep-10 07:33N 51°21' E 003°13'0 0.0
2014-Sep-10 06:30N 51°21' E 003°13'0 0.0
2014-Sep-10 05:33N 51°21' E 003°13'0 0.0
2014-Sep-10 04:33N 51°21' E 003°13'0 0.0
2014-Sep-10 03:18N 51°21' E 003°13'0 0.0
2014-Sep-10 02:09N 51°21' E 003°13'0 0.0
2014-Sep-10 01:30N 51°21' E 003°13'0 0.0
2014-Sep-10 00:15N 51°21' E 003°13'1011.9
2014-Sep-09 23:24N 51°26' E 002°59'1416.4
2014-Sep-09 22:31N 51°34' E 002°40'1515.3
2014-Sep-09 21:33N 51°38' E 002°17'1413.8
2014-Sep-09 20:33N 51°36' E 001°55'1514.9
2014-Sep-09 19:33N 51°30' E 001°33'1616.1
2014-Sep-09 18:33N 51°29' E 001°08'1717.5
2014-Sep-09 17:34N 51°30' E 000°40'1312.6
2014-Sep-09 16:33N 51°27' E 000°20'3 3.1
2014-Sep-09 15:34N 51°28' E 000°15'0 0.0
2014-Sep-09 14:33N 51°28' E 000°15'0 0.0
2014-Sep-09 13:33N 51°28' E 000°15'0 0.0
2014-Sep-09 12:33N 51°28' E 000°15'0 0.0
2014-Sep-09 11:33N 51°28' E 000°15'0 0.0
2014-Sep-09 10:33N 51°28' E 000°15'0 0.0
2014-Sep-09 09:33N 51°28' E 000°15'0 0.0
2014-Sep-09 08:33N 51°28' E 000°15'  

Dump ship's entire track history